createdAt,value
2023-09-20T00:00:26.000Z,18.98
2023-09-20T00:01:21.000Z,18.98
2023-09-20T00:02:21.000Z,18.98
2023-09-20T00:03:21.000Z,18.96
2023-09-20T00:04:21.000Z,18.98
2023-09-20T00:05:22.000Z,18.96
2023-09-20T00:06:21.000Z,18.97
2023-09-20T00:07:21.000Z,18.95
2023-09-20T00:08:21.000Z,18.94
2023-09-20T00:09:21.000Z,18.93
2023-09-20T00:10:22.000Z,18.93
2023-09-20T00:11:21.000Z,18.91
2023-09-20T00:12:21.000Z,18.92
2023-09-20T00:13:21.000Z,18.89
2023-09-20T00:14:22.000Z,18.89
2023-09-20T00:15:22.000Z,18.89
2023-09-20T00:16:22.000Z,18.87
2023-09-20T00:17:20.000Z,18.87
2023-09-20T00:18:22.000Z,18.84
2023-09-20T00:19:21.000Z,18.84
2023-09-20T00:20:20.000Z,18.85
2023-09-20T00:21:20.000Z,18.85
2023-09-20T00:22:20.000Z,18.82
2023-09-20T00:23:21.000Z,18.81
2023-09-20T00:24:20.000Z,18.82
2023-09-20T00:25:21.000Z,18.80
2023-09-20T00:26:20.000Z,18.81
2023-09-20T00:27:20.000Z,18.82
2023-09-20T00:28:21.000Z,18.82
2023-09-20T00:29:24.000Z,18.83
2023-09-20T00:30:20.000Z,18.82
2023-09-20T00:31:20.000Z,18.82
2023-09-20T00:32:20.000Z,18.82
2023-09-20T00:33:20.000Z,18.83
2023-09-20T00:34:20.000Z,18.83
2023-09-20T00:35:21.000Z,18.84
2023-09-20T00:36:20.000Z,18.84
2023-09-20T00:37:21.000Z,18.86
2023-09-20T00:38:20.000Z,18.87
2023-09-20T00:39:20.000Z,18.86
2023-09-20T00:40:21.000Z,18.87
2023-09-20T00:41:21.000Z,18.85
2023-09-20T00:42:20.000Z,18.83
2023-09-20T00:43:24.000Z,18.83
2023-09-20T00:44:20.000Z,18.83
2023-09-20T00:45:21.000Z,18.83
2023-09-20T00:46:21.000Z,18.83
2023-09-20T00:47:20.000Z,18.83
2023-09-20T00:48:20.000Z,18.82
2023-09-20T00:49:21.000Z,18.82
2023-09-20T00:50:21.000Z,18.82
2023-09-20T00:51:22.000Z,18.82
2023-09-20T00:52:21.000Z,18.83
2023-09-20T00:53:20.000Z,18.82
2023-09-20T00:54:21.000Z,18.82
2023-09-20T00:55:27.000Z,18.81
2023-09-20T00:56:21.000Z,18.81
2023-09-20T00:57:20.000Z,18.80
2023-09-20T00:58:23.000Z,18.80
2023-09-20T00:59:21.000Z,18.79
2023-09-20T01:00:22.000Z,18.78
2023-09-20T01:01:22.000Z,18.76
2023-09-20T01:02:21.000Z,18.75
2023-09-20T01:03:22.000Z,18.75
2023-09-20T01:04:20.000Z,18.74
2023-09-20T01:05:25.000Z,18.75
2023-09-20T01:06:21.000Z,18.75
2023-09-20T01:07:22.000Z,18.75
2023-09-20T01:08:20.000Z,18.75
2023-09-20T01:09:24.000Z,18.75
2023-09-20T01:10:24.000Z,18.73
2023-09-20T01:11:21.000Z,18.72
2023-09-20T01:12:20.000Z,18.73
2023-09-20T01:13:21.000Z,18.71
2023-09-20T01:14:21.000Z,18.70
2023-09-20T01:15:22.000Z,18.74
2023-09-20T01:16:20.000Z,18.72
2023-09-20T01:17:20.000Z,18.70
2023-09-20T01:18:20.000Z,18.69
2023-09-20T01:19:20.000Z,18.66
2023-09-20T01:20:20.000Z,18.65
2023-09-20T01:21:20.000Z,18.65
2023-09-20T01:22:20.000Z,18.64
2023-09-20T01:23:20.000Z,18.63
2023-09-20T01:24:22.000Z,18.59
2023-09-20T01:25:27.000Z,18.61
2023-09-20T01:26:20.000Z,18.56
2023-09-20T01:27:21.000Z,18.58
2023-09-20T01:28:22.000Z,18.58
2023-09-20T01:29:20.000Z,18.57
2023-09-20T01:30:25.000Z,18.54
2023-09-20T01:31:20.000Z,18.54
2023-09-20T01:32:20.000Z,18.54
2023-09-20T01:33:21.000Z,18.54
2023-09-20T01:34:20.000Z,18.54
2023-09-20T01:35:21.000Z,18.52
2023-09-20T01:36:20.000Z,18.52
2023-09-20T01:37:20.000Z,18.51
2023-09-20T01:38:20.000Z,18.50
2023-09-20T01:39:21.000Z,18.50
2023-09-20T01:40:23.000Z,18.49
2023-09-20T01:41:21.000Z,18.49
2023-09-20T01:42:21.000Z,18.48
2023-09-20T01:43:21.000Z,18.46
2023-09-20T01:44:22.000Z,18.46
2023-09-20T01:45:20.000Z,18.45
2023-09-20T01:46:25.000Z,18.43
2023-09-20T01:47:20.000Z,18.42
2023-09-20T01:48:21.000Z,18.39
2023-09-20T01:49:21.000Z,18.39
2023-09-20T01:50:23.000Z,18.38
2023-09-20T01:51:20.000Z,18.38
2023-09-20T01:52:20.000Z,18.38
2023-09-20T01:53:20.000Z,18.37
2023-09-20T01:54:20.000Z,18.36
2023-09-20T01:55:22.000Z,18.32
2023-09-20T01:56:21.000Z,18.32
2023-09-20T01:57:20.000Z,18.32
2023-09-20T01:58:20.000Z,18.30
2023-09-20T01:59:20.000Z,18.28
2023-09-20T02:00:26.000Z,18.30
2023-09-20T02:01:20.000Z,18.28
2023-09-20T02:02:22.000Z,18.26
2023-09-20T02:03:20.000Z,18.25
2023-09-20T02:04:20.000Z,18.26
2023-09-20T02:05:21.000Z,18.22
2023-09-20T02:06:21.000Z,18.23
2023-09-20T02:07:20.000Z,18.21
2023-09-20T02:08:20.000Z,18.21
2023-09-20T02:09:20.000Z,18.20
2023-09-20T02:10:20.000Z,18.21
2023-09-20T02:11:20.000Z,18.21
2023-09-20T02:12:20.000Z,18.20
2023-09-20T02:13:20.000Z,18.18
2023-09-20T02:14:21.000Z,18.20
2023-09-20T02:15:23.000Z,18.18
2023-09-20T02:16:20.000Z,18.19
2023-09-20T02:17:20.000Z,18.19
2023-09-20T02:18:21.000Z,18.19
2023-09-20T02:19:20.000Z,18.16
2023-09-20T02:20:22.000Z,18.20
2023-09-20T02:21:20.000Z,18.19
2023-09-20T02:22:20.000Z,18.15
2023-09-20T02:23:20.000Z,18.18
2023-09-20T02:24:22.000Z,18.15
2023-09-20T02:25:21.000Z,18.16
2023-09-20T02:26:20.000Z,18.14
2023-09-20T02:27:22.000Z,18.13
2023-09-20T02:28:20.000Z,18.12
2023-09-20T02:29:22.000Z,18.12
2023-09-20T02:30:25.000Z,18.13
2023-09-20T02:31:20.000Z,18.12
2023-09-20T02:32:20.000Z,18.13
2023-09-20T02:33:20.000Z,18.13
2023-09-20T02:34:20.000Z,18.13
2023-09-20T02:35:21.000Z,18.14
2023-09-20T02:36:20.000Z,18.12
2023-09-20T02:37:20.000Z,18.12
2023-09-20T02:38:20.000Z,18.12
2023-09-20T02:39:20.000Z,18.12
2023-09-20T02:40:23.000Z,18.11
2023-09-20T02:41:20.000Z,18.11
2023-09-20T02:42:24.000Z,18.11
2023-09-20T02:43:21.000Z,18.10
2023-09-20T02:44:20.000Z,18.08
2023-09-20T02:45:21.000Z,18.10
2023-09-20T02:46:20.000Z,18.08
2023-09-20T02:47:21.000Z,18.10
2023-09-20T02:48:20.000Z,18.09
2023-09-20T02:49:20.000Z,18.11
2023-09-20T02:50:23.000Z,18.08
2023-09-20T02:51:23.000Z,18.09
2023-09-20T02:52:21.000Z,18.07
2023-09-20T02:53:20.000Z,18.07
2023-09-20T02:54:21.000Z,18.07
2023-09-20T02:55:22.000Z,18.09
2023-09-20T02:56:21.000Z,18.10
2023-09-20T02:57:21.000Z,18.11
2023-09-20T02:58:21.000Z,18.11
2023-09-20T02:59:20.000Z,18.08
2023-09-20T03:00:23.000Z,18.10
2023-09-20T03:01:20.000Z,18.08
2023-09-20T03:02:20.000Z,18.08
2023-09-20T03:03:23.000Z,18.08
2023-09-20T03:04:21.000Z,18.07
2023-09-20T03:05:30.000Z,18.07
2023-09-20T03:06:20.000Z,18.07
2023-09-20T03:07:22.000Z,18.05
2023-09-20T03:08:20.000Z,18.06
2023-09-20T03:09:24.000Z,18.06
2023-09-20T03:10:22.000Z,18.04
2023-09-20T03:11:26.000Z,18.00
2023-09-20T03:12:20.000Z,18.00
2023-09-20T03:13:21.000Z,17.97
2023-09-20T03:14:23.000Z,17.98
2023-09-20T03:15:25.000Z,17.96
2023-09-20T03:16:21.000Z,17.96
2023-09-20T03:17:20.000Z,17.96
2023-09-20T03:18:22.000Z,17.98
2023-09-20T03:19:22.000Z,17.99
2023-09-20T03:20:24.000Z,17.97
2023-09-20T03:21:21.000Z,17.97
2023-09-20T03:22:22.000Z,17.97
2023-09-20T03:23:21.000Z,17.96
2023-09-20T03:24:20.000Z,17.95
2023-09-20T03:25:22.000Z,17.95
2023-09-20T03:26:20.000Z,17.95
2023-09-20T03:27:23.000Z,17.97
2023-09-20T03:28:22.000Z,17.94
2023-09-20T03:29:23.000Z,17.94
2023-09-20T03:30:21.000Z,17.95
2023-09-20T03:31:22.000Z,17.93
2023-09-20T03:32:20.000Z,17.93
2023-09-20T03:33:21.000Z,17.93
2023-09-20T03:34:20.000Z,17.92
2023-09-20T03:35:21.000Z,17.92
2023-09-20T03:36:20.000Z,17.92
2023-09-20T03:37:21.000Z,17.92
2023-09-20T03:38:21.000Z,17.92
2023-09-20T03:39:24.000Z,17.92
2023-09-20T03:40:22.000Z,17.91
2023-09-20T03:41:20.000Z,17.92
2023-09-20T03:42:21.000Z,17.89
2023-09-20T03:43:20.000Z,17.91
2023-09-20T03:44:20.000Z,17.90
2023-09-20T03:45:21.000Z,17.88
2023-09-20T03:46:20.000Z,17.89
2023-09-20T03:47:20.000Z,17.90
2023-09-20T03:48:20.000Z,17.88
2023-09-20T03:49:21.000Z,17.91
2023-09-20T03:50:21.000Z,17.87
2023-09-20T03:51:20.000Z,17.90
2023-09-20T03:52:20.000Z,17.87
2023-09-20T03:53:20.000Z,17.87
2023-09-20T03:54:20.000Z,17.87
2023-09-20T03:55:21.000Z,17.86
2023-09-20T03:56:20.000Z,17.87
2023-09-20T03:57:24.000Z,17.87
2023-09-20T03:58:20.000Z,17.87
2023-09-20T03:59:20.000Z,17.86
2023-09-20T04:00:25.000Z,17.85
2023-09-20T04:01:20.000Z,17.83
2023-09-20T04:02:23.000Z,17.83
2023-09-20T04:03:20.000Z,17.82
2023-09-20T04:04:20.000Z,17.81
2023-09-20T04:05:20.000Z,17.85
2023-09-20T04:06:20.000Z,17.82
2023-09-20T04:07:23.000Z,17.82
2023-09-20T04:08:21.000Z,17.81
2023-09-20T04:09:20.000Z,17.80
2023-09-20T04:10:20.000Z,17.80
2023-09-20T04:11:20.000Z,17.81
2023-09-20T04:12:22.000Z,17.80
2023-09-20T04:13:22.000Z,17.82
2023-09-20T04:14:20.000Z,17.80
2023-09-20T04:15:20.000Z,17.82
2023-09-20T04:16:20.000Z,17.83
2023-09-20T04:17:25.000Z,17.81
2023-09-20T04:18:20.000Z,17.80
2023-09-20T04:19:20.000Z,17.77
2023-09-20T04:20:20.000Z,17.79
2023-09-20T04:21:20.000Z,17.76
2023-09-20T04:22:20.000Z,17.78
2023-09-20T04:23:20.000Z,17.75
2023-09-20T04:24:20.000Z,17.74
2023-09-20T04:25:20.000Z,17.73
2023-09-20T04:26:20.000Z,17.69
2023-09-20T04:27:20.000Z,17.69
2023-09-20T04:28:20.000Z,17.68
2023-09-20T04:29:20.000Z,17.67
2023-09-20T04:30:21.000Z,17.65
2023-09-20T04:31:20.000Z,17.61
2023-09-20T04:32:21.000Z,17.61
2023-09-20T04:33:20.000Z,17.59
2023-09-20T04:34:21.000Z,17.56
2023-09-20T04:35:20.000Z,17.57
2023-09-20T04:36:20.000Z,17.55
2023-09-20T04:37:22.000Z,17.54
2023-09-20T04:38:20.000Z,17.54
2023-09-20T04:39:20.000Z,17.52
2023-09-20T04:40:21.000Z,17.51
2023-09-20T04:41:21.000Z,17.53
2023-09-20T04:42:20.000Z,17.50
2023-09-20T04:43:20.000Z,17.51
2023-09-20T04:44:20.000Z,17.45
2023-09-20T04:45:21.000Z,17.47
2023-09-20T04:46:20.000Z,17.44
2023-09-20T04:47:20.000Z,17.44
2023-09-20T04:48:20.000Z,17.43
2023-09-20T04:49:20.000Z,17.42
2023-09-20T04:50:20.000Z,17.42
2023-09-20T04:51:20.000Z,17.40
2023-09-20T04:52:21.000Z,17.41
2023-09-20T04:53:21.000Z,17.42
2023-09-20T04:54:23.000Z,17.40
2023-09-20T04:55:20.000Z,17.41
2023-09-20T04:56:20.000Z,17.42
2023-09-20T04:57:20.000Z,17.38
2023-09-20T04:58:20.000Z,17.40
2023-09-20T04:59:22.000Z,17.38
2023-09-20T05:00:26.000Z,17.38
2023-09-20T05:01:22.000Z,17.38
2023-09-20T05:02:22.000Z,17.38
2023-09-20T05:03:20.000Z,17.37
2023-09-20T05:04:21.000Z,17.36
2023-09-20T05:05:23.000Z,17.36
2023-09-20T05:06:22.000Z,17.33
2023-09-20T05:07:21.000Z,17.35
2023-09-20T05:08:20.000Z,17.32
2023-09-20T05:09:20.000Z,17.30
2023-09-20T05:10:20.000Z,17.31
2023-09-20T05:11:22.000Z,17.31
2023-09-20T05:12:21.000Z,17.35
2023-09-20T05:13:20.000Z,17.35
2023-09-20T05:14:20.000Z,17.35
2023-09-20T05:15:23.000Z,17.35
2023-09-20T05:16:21.000Z,17.34
2023-09-20T05:17:21.000Z,17.34
2023-09-20T05:18:20.000Z,17.34
2023-09-20T05:19:22.000Z,17.33
2023-09-20T05:20:20.000Z,17.31
2023-09-20T05:21:20.000Z,17.31
2023-09-20T05:22:20.000Z,17.30
2023-09-20T05:23:20.000Z,17.31
2023-09-20T05:24:20.000Z,17.30
2023-09-20T05:25:20.000Z,17.31
2023-09-20T05:26:21.000Z,17.29
2023-09-20T05:27:21.000Z,17.29
2023-09-20T05:28:20.000Z,17.27
2023-09-20T05:29:21.000Z,17.26
2023-09-20T05:30:22.000Z,17.24
2023-09-20T05:31:26.000Z,17.25
2023-09-20T05:32:21.000Z,17.25
2023-09-20T05:33:21.000Z,17.24
2023-09-20T05:34:21.000Z,17.24
2023-09-20T05:35:20.000Z,17.22
2023-09-20T05:36:21.000Z,17.25
2023-09-20T05:37:21.000Z,17.27
2023-09-20T05:38:21.000Z,17.24
2023-09-20T05:39:21.000Z,17.23
2023-09-20T05:40:21.000Z,17.20
2023-09-20T05:41:21.000Z,17.20
2023-09-20T05:42:20.000Z,17.22
2023-09-20T05:43:20.000Z,17.22
2023-09-20T05:44:21.000Z,17.19
2023-09-20T05:45:23.000Z,17.20
2023-09-20T05:46:24.000Z,17.20
2023-09-20T05:47:20.000Z,17.22
2023-09-20T05:48:20.000Z,17.20
2023-09-20T05:49:23.000Z,17.23
2023-09-20T05:50:27.000Z,17.23
2023-09-20T05:51:20.000Z,17.25
2023-09-20T05:52:21.000Z,17.29
2023-09-20T05:53:21.000Z,17.29
2023-09-20T05:54:21.000Z,17.29
2023-09-20T05:55:22.000Z,17.30
2023-09-20T05:56:20.000Z,17.31
2023-09-20T05:57:21.000Z,17.31
2023-09-20T05:58:20.000Z,17.32
2023-09-20T05:59:22.000Z,17.32
2023-09-20T06:00:22.000Z,17.32
2023-09-20T06:01:23.000Z,17.35
2023-09-20T06:02:20.000Z,17.35
2023-09-20T06:03:21.000Z,17.33
2023-09-20T06:04:20.000Z,17.36
2023-09-20T06:05:24.000Z,17.36
2023-09-20T06:06:21.000Z,17.37
2023-09-20T06:07:20.000Z,17.37
2023-09-20T06:08:20.000Z,17.40
2023-09-20T06:09:20.000Z,17.38
2023-09-20T06:10:22.000Z,17.41
2023-09-20T06:11:20.000Z,17.38
2023-09-20T06:12:20.000Z,17.38
2023-09-20T06:13:20.000Z,17.40
2023-09-20T06:14:22.000Z,17.40
2023-09-20T06:15:20.000Z,17.39
2023-09-20T06:16:20.000Z,17.37
2023-09-20T06:17:20.000Z,17.37
2023-09-20T06:18:20.000Z,17.37
2023-09-20T06:19:20.000Z,17.37
2023-09-20T06:20:21.000Z,17.38
2023-09-20T06:21:20.000Z,17.38
2023-09-20T06:22:20.000Z,17.40
2023-09-20T06:23:24.000Z,17.40
2023-09-20T06:24:20.000Z,17.41
2023-09-20T06:25:20.000Z,17.43
2023-09-20T06:26:20.000Z,17.43
2023-09-20T06:27:22.000Z,17.43
2023-09-20T06:28:20.000Z,17.47
2023-09-20T06:29:21.000Z,17.45
2023-09-20T06:30:21.000Z,17.47
2023-09-20T06:31:20.000Z,17.45
2023-09-20T06:32:20.000Z,17.48
2023-09-20T06:33:20.000Z,17.48
2023-09-20T06:34:21.000Z,17.48
2023-09-20T06:35:22.000Z,17.49
2023-09-20T06:36:20.000Z,17.48
2023-09-20T06:37:21.000Z,17.50
2023-09-20T06:38:22.000Z,17.50
2023-09-20T06:39:20.000Z,17.53
2023-09-20T06:40:23.000Z,17.56
2023-09-20T06:41:20.000Z,17.57
2023-09-20T06:42:20.000Z,17.56
2023-09-20T06:43:20.000Z,17.57
2023-09-20T06:44:20.000Z,17.60
2023-09-20T06:45:20.000Z,17.61
2023-09-20T06:46:23.000Z,17.65
2023-09-20T06:47:20.000Z,17.66
2023-09-20T06:48:24.000Z,17.67
2023-09-20T06:49:20.000Z,17.69
2023-09-20T06:50:20.000Z,17.69
2023-09-20T06:51:20.000Z,17.70
2023-09-20T06:52:20.000Z,17.72
2023-09-20T06:53:21.000Z,17.72
2023-09-20T06:54:20.000Z,17.73
2023-09-20T06:55:21.000Z,17.73
2023-09-20T06:56:20.000Z,17.73
2023-09-20T06:57:22.000Z,17.73
2023-09-20T06:58:21.000Z,17.72
2023-09-20T06:59:20.000Z,17.72
2023-09-20T07:00:25.000Z,17.73
2023-09-20T07:01:21.000Z,17.74
2023-09-20T07:02:24.000Z,17.73
2023-09-20T07:03:21.000Z,17.74
2023-09-20T07:04:21.000Z,17.75
2023-09-20T07:05:23.000Z,17.75
2023-09-20T07:06:20.000Z,17.78
2023-09-20T07:07:20.000Z,17.78
2023-09-20T07:08:21.000Z,17.81
2023-09-20T07:09:21.000Z,17.84
2023-09-20T07:10:22.000Z,17.84
2023-09-20T07:11:20.000Z,17.85
2023-09-20T07:12:21.000Z,17.87
2023-09-20T07:13:20.000Z,17.89
2023-09-20T07:14:20.000Z,17.90
2023-09-20T07:15:21.000Z,17.88
2023-09-20T07:16:21.000Z,17.92
2023-09-20T07:17:20.000Z,17.93
2023-09-20T07:18:20.000Z,17.96
2023-09-20T07:19:23.000Z,17.97
2023-09-20T07:20:21.000Z,17.97
2023-09-20T07:21:20.000Z,17.99
2023-09-20T07:22:22.000Z,18.03
2023-09-20T07:23:21.000Z,18.04
2023-09-20T07:24:24.000Z,18.07
2023-09-20T07:25:21.000Z,18.12
2023-09-20T07:26:25.000Z,18.16
2023-09-20T07:27:20.000Z,18.20
2023-09-20T07:28:22.000Z,18.24
2023-09-20T07:29:21.000Z,18.30
2023-09-20T07:30:22.000Z,18.36
2023-09-20T07:31:21.000Z,18.42
2023-09-20T07:32:20.000Z,18.47
2023-09-20T07:33:23.000Z,18.52
2023-09-20T07:34:22.000Z,18.55
2023-09-20T07:35:25.000Z,18.58
2023-09-20T07:36:20.000Z,18.65
2023-09-20T07:37:20.000Z,18.68
2023-09-20T07:38:26.000Z,18.74
2023-09-20T07:39:21.000Z,18.80
2023-09-20T07:40:31.000Z,18.84
2023-09-20T07:41:20.000Z,18.87
2023-09-20T07:42:20.000Z,18.93
2023-09-20T07:43:20.000Z,18.97
2023-09-20T07:44:28.000Z,19.01
2023-09-20T07:45:22.000Z,19.04
2023-09-20T07:46:23.000Z,19.08
2023-09-20T07:47:20.000Z,19.13
2023-09-20T07:48:22.000Z,19.15
2023-09-20T07:49:20.000Z,19.22
2023-09-20T07:50:21.000Z,19.25
2023-09-20T07:51:20.000Z,19.27
2023-09-20T07:52:20.000Z,19.34
2023-09-20T07:53:20.000Z,19.36
2023-09-20T07:54:20.000Z,19.43
2023-09-20T07:55:20.000Z,19.45
2023-09-20T07:56:20.000Z,19.49
2023-09-20T07:57:22.000Z,19.53
2023-09-20T07:58:20.000Z,19.56
2023-09-20T07:59:22.000Z,19.60
2023-09-20T08:00:20.000Z,19.62
2023-09-20T08:01:21.000Z,19.64
2023-09-20T08:02:20.000Z,19.69
2023-09-20T08:03:22.000Z,19.70
2023-09-20T08:04:21.000Z,19.74
2023-09-20T08:05:21.000Z,19.77
2023-09-20T08:06:22.000Z,19.75
2023-09-20T08:07:20.000Z,19.78
2023-09-20T08:08:20.000Z,19.82
2023-09-20T08:09:20.000Z,19.83
2023-09-20T08:10:19.000Z,19.83
2023-09-20T08:11:19.000Z,19.82
2023-09-20T08:12:20.000Z,19.84
2023-09-20T08:13:20.000Z,19.84
2023-09-20T08:14:20.000Z,19.86
2023-09-20T08:15:19.000Z,19.87
2023-09-20T08:16:22.000Z,19.86
2023-09-20T08:17:25.000Z,19.77
2023-09-20T08:18:25.000Z,19.76
2023-09-20T08:19:23.000Z,19.77
2023-09-20T08:20:21.000Z,19.79
2023-09-20T08:21:20.000Z,19.84
2023-09-20T08:22:20.000Z,19.86
2023-09-20T08:23:25.000Z,19.91
2023-09-20T08:24:25.000Z,19.94
2023-09-20T08:25:25.000Z,19.98
2023-09-20T08:26:24.000Z,20.04
2023-09-20T08:27:25.000Z,20.08
2023-09-20T08:28:25.000Z,20.14
2023-09-20T08:29:25.000Z,20.16
2023-09-20T08:30:25.000Z,20.24
2023-09-20T08:31:25.000Z,20.27
2023-09-20T08:32:25.000Z,20.29
2023-09-20T08:33:24.000Z,20.36
2023-09-20T08:34:25.000Z,20.39
2023-09-20T08:35:24.000Z,20.45
2023-09-20T08:36:24.000Z,20.47
2023-09-20T08:37:24.000Z,20.52
2023-09-20T08:38:24.000Z,20.52
2023-09-20T08:39:25.000Z,20.56
2023-09-20T08:40:25.000Z,20.56
2023-09-20T08:41:25.000Z,20.59
2023-09-20T08:42:25.000Z,20.63
2023-09-20T08:43:25.000Z,20.64
2023-09-20T08:44:25.000Z,20.66
2023-09-20T08:45:25.000Z,20.65
2023-09-20T08:46:25.000Z,20.67
2023-09-20T08:47:25.000Z,20.67
2023-09-20T08:48:26.000Z,20.67
2023-09-20T08:49:29.000Z,20.68
2023-09-20T08:50:33.000Z,20.68
2023-09-20T08:51:39.000Z,20.69
2023-09-20T08:52:26.000Z,20.67
2023-09-20T08:53:27.000Z,20.70
2023-09-20T08:54:26.000Z,20.73
2023-09-20T08:55:25.000Z,20.75
2023-09-20T08:56:26.000Z,20.75
2023-09-20T08:57:28.000Z,20.76
2023-09-20T08:58:25.000Z,20.77
2023-09-20T08:59:27.000Z,20.77
2023-09-20T09:00:25.000Z,20.77
2023-09-20T09:01:21.000Z,20.80
2023-09-20T09:02:23.000Z,20.78
2023-09-20T09:03:20.000Z,20.79
2023-09-20T09:04:19.000Z,20.81
2023-09-20T09:05:22.000Z,20.76
2023-09-20T09:06:19.000Z,20.76
2023-09-20T09:07:22.000Z,20.76
2023-09-20T09:08:19.000Z,20.78
2023-09-20T09:09:19.000Z,20.78
2023-09-20T09:10:20.000Z,20.80
2023-09-20T09:11:22.000Z,20.79
2023-09-20T09:12:20.000Z,20.82
2023-09-20T09:13:20.000Z,20.83
2023-09-20T09:14:19.000Z,20.83
2023-09-20T09:15:22.000Z,20.85
2023-09-20T09:16:20.000Z,20.84
2023-09-20T09:17:19.000Z,20.86
2023-09-20T09:18:20.000Z,20.87
2023-09-20T09:19:19.000Z,20.87
2023-09-20T09:20:20.000Z,20.87
2023-09-20T09:21:19.000Z,20.88
2023-09-20T09:22:22.000Z,20.88
2023-09-20T09:23:29.000Z,20.89
2023-09-20T09:24:20.000Z,20.88
2023-09-20T09:25:25.000Z,20.88
2023-09-20T09:26:20.000Z,20.89
2023-09-20T09:27:20.000Z,20.91
2023-09-20T09:28:20.000Z,20.95
2023-09-20T09:29:21.000Z,20.99
2023-09-20T09:30:21.000Z,21.03
2023-09-20T09:31:19.000Z,21.09
2023-09-20T09:32:22.000Z,21.16
2023-09-20T09:33:22.000Z,21.24
2023-09-20T09:34:20.000Z,21.28
2023-09-20T09:35:21.000Z,21.33
2023-09-20T09:36:19.000Z,21.38
2023-09-20T09:37:20.000Z,21.40
2023-09-20T09:38:21.000Z,21.44
2023-09-20T09:39:20.000Z,21.47
2023-09-20T09:40:21.000Z,21.49
2023-09-20T09:41:19.000Z,21.53
2023-09-20T09:42:20.000Z,21.54
2023-09-20T09:43:19.000Z,21.55
2023-09-20T09:44:21.000Z,21.57
2023-09-20T09:45:28.000Z,21.61
2023-09-20T09:46:19.000Z,21.59
2023-09-20T09:47:20.000Z,21.58
2023-09-20T09:48:20.000Z,21.56
2023-09-20T09:49:21.000Z,21.58
2023-09-20T09:50:20.000Z,21.63
2023-09-20T09:51:20.000Z,21.63
2023-09-20T09:52:23.000Z,21.64
2023-09-20T09:53:20.000Z,21.69
2023-09-20T09:54:20.000Z,21.76
2023-09-20T09:55:20.000Z,21.80
2023-09-20T09:56:20.000Z,21.85
2023-09-20T09:57:21.000Z,21.92
2023-09-20T09:58:20.000Z,21.95
2023-09-20T09:59:20.000Z,22.00
2023-09-20T10:00:21.000Z,22.05
2023-09-20T10:01:21.000Z,22.10
2023-09-20T10:02:23.000Z,22.12
2023-09-20T10:03:26.000Z,22.13
2023-09-20T10:04:21.000Z,22.05
2023-09-20T10:05:20.000Z,22.05
2023-09-20T10:06:25.000Z,22.07
2023-09-20T10:07:28.000Z,22.11
2023-09-20T10:08:23.000Z,22.12
2023-09-20T10:09:24.000Z,22.11
2023-09-20T10:10:22.000Z,22.12
2023-09-20T10:11:21.000Z,22.18
2023-09-20T10:12:21.000Z,22.23
2023-09-20T10:13:20.000Z,22.24
2023-09-20T10:14:22.000Z,22.28
2023-09-20T10:15:21.000Z,22.29
2023-09-20T10:16:21.000Z,22.34
2023-09-20T10:17:20.000Z,22.37
2023-09-20T10:18:20.000Z,22.38
2023-09-20T10:19:21.000Z,22.43
2023-09-20T10:20:20.000Z,22.46
2023-09-20T10:21:24.000Z,22.52
2023-09-20T10:22:22.000Z,22.55
2023-09-20T10:23:21.000Z,22.56
2023-09-20T10:24:27.000Z,22.54
2023-09-20T10:25:30.000Z,22.56
2023-09-20T10:26:21.000Z,22.57
2023-09-20T10:27:21.000Z,22.61
2023-09-20T10:28:22.000Z,22.61
2023-09-20T10:29:24.000Z,22.58
2023-09-20T10:30:20.000Z,22.59
2023-09-20T10:31:19.000Z,22.61
2023-09-20T10:32:21.000Z,22.64
2023-09-20T10:33:29.000Z,22.65
2023-09-20T10:34:22.000Z,22.69
2023-09-20T10:35:24.000Z,22.70
2023-09-20T10:36:27.000Z,22.75
2023-09-20T10:37:21.000Z,22.79
2023-09-20T10:38:20.000Z,22.82
2023-09-20T10:39:21.000Z,22.85
2023-09-20T10:40:19.000Z,22.93
2023-09-20T10:41:38.000Z,22.94
2023-09-20T10:42:19.000Z,22.98
2023-09-20T10:43:34.000Z,23.01
2023-09-20T10:44:28.000Z,23.06
2023-09-20T10:45:20.000Z,23.07
2023-09-20T10:46:21.000Z,23.07
2023-09-20T10:47:19.000Z,23.07
2023-09-20T10:48:25.000Z,23.06
2023-09-20T10:49:29.000Z,23.13
2023-09-20T10:50:29.000Z,23.17
2023-09-20T10:51:29.000Z,23.25
2023-09-20T10:52:29.000Z,23.29
2023-09-20T10:53:42.000Z,23.32
2023-09-20T10:54:21.000Z,23.35
2023-09-20T10:55:37.000Z,23.38
2023-09-20T10:56:42.000Z,23.42
2023-09-20T10:57:23.000Z,23.44
2023-09-20T10:58:22.000Z,23.53
2023-09-20T10:59:23.000Z,23.57
2023-09-20T11:00:27.000Z,23.62
2023-09-20T11:01:21.000Z,23.66
2023-09-20T11:02:30.000Z,23.68
2023-09-20T11:03:24.000Z,23.73
2023-09-20T11:04:20.000Z,23.76
2023-09-20T11:05:21.000Z,23.80
2023-09-20T11:06:21.000Z,23.78
2023-09-20T11:07:20.000Z,23.80
2023-09-20T11:08:21.000Z,23.81
2023-09-20T11:09:20.000Z,23.82
2023-09-20T11:10:20.000Z,23.86
2023-09-20T11:11:22.000Z,23.88
2023-09-20T11:12:20.000Z,23.91
2023-09-20T11:13:21.000Z,23.92
2023-09-20T11:14:23.000Z,23.96
2023-09-20T11:15:22.000Z,23.94
2023-09-20T11:16:21.000Z,23.98
2023-09-20T11:17:20.000Z,23.99
2023-09-20T11:18:20.000Z,24.03
2023-09-20T11:19:20.000Z,24.07
2023-09-20T11:20:20.000Z,24.08
2023-09-20T11:21:20.000Z,24.10
2023-09-20T11:22:20.000Z,24.12
2023-09-20T11:23:20.000Z,24.14
2023-09-20T11:24:20.000Z,24.11
2023-09-20T11:25:20.000Z,24.10
2023-09-20T11:26:28.000Z,24.11
2023-09-20T11:27:20.000Z,24.13
2023-09-20T11:28:21.000Z,24.16
2023-09-20T11:29:21.000Z,24.19
2023-09-20T11:30:24.000Z,24.24
2023-09-20T11:31:26.000Z,24.25
2023-09-20T11:32:22.000Z,24.22
2023-09-20T11:33:26.000Z,24.18
2023-09-20T11:34:20.000Z,24.20
2023-09-20T11:35:30.000Z,24.26
2023-09-20T11:36:22.000Z,24.29
2023-09-20T11:37:21.000Z,24.33
2023-09-20T11:38:21.000Z,24.35
2023-09-20T11:39:28.000Z,24.41
2023-09-20T11:40:20.000Z,24.45
2023-09-20T11:41:24.000Z,24.46
2023-09-20T11:42:27.000Z,24.46
2023-09-20T11:43:21.000Z,24.49
2023-09-20T11:44:20.000Z,24.51
2023-09-20T11:45:21.000Z,24.55
2023-09-20T11:46:21.000Z,24.56
2023-09-20T11:47:20.000Z,24.58
2023-09-20T11:48:22.000Z,24.62
2023-09-20T11:49:20.000Z,24.68
2023-09-20T11:50:22.000Z,24.69
2023-09-20T11:51:22.000Z,24.74
2023-09-20T11:52:20.000Z,24.77
2023-09-20T11:53:21.000Z,24.78
2023-09-20T11:54:28.000Z,24.80
2023-09-20T11:55:21.000Z,24.82
2023-09-20T11:56:25.000Z,24.84
2023-09-20T11:57:24.000Z,24.79
2023-09-20T11:58:19.000Z,24.76
2023-09-20T11:59:19.000Z,24.79
2023-09-20T12:00:22.000Z,24.80
2023-09-20T12:01:23.000Z,24.82
2023-09-20T12:02:19.000Z,24.87
2023-09-20T12:03:19.000Z,24.88
2023-09-20T12:04:19.000Z,24.91
2023-09-20T12:05:21.000Z,24.94
2023-09-20T12:06:20.000Z,24.94
2023-09-20T12:07:19.000Z,24.95
2023-09-20T12:08:20.000Z,24.98
2023-09-20T12:09:21.000Z,24.95
2023-09-20T12:10:19.000Z,24.98
2023-09-20T12:11:20.000Z,25.01
2023-09-20T12:12:19.000Z,25.04
2023-09-20T12:13:20.000Z,25.00
2023-09-20T12:14:19.000Z,24.97
2023-09-20T12:15:22.000Z,24.93
2023-09-20T12:16:23.000Z,24.99
2023-09-20T12:17:19.000Z,24.99
2023-09-20T12:18:19.000Z,25.02
2023-09-20T12:19:20.000Z,25.06
2023-09-20T12:20:20.000Z,25.04
2023-09-20T12:21:21.000Z,25.00
2023-09-20T12:22:19.000Z,25.01
2023-09-20T12:23:19.000Z,25.06
2023-09-20T12:24:22.000Z,25.08
2023-09-20T12:25:19.000Z,25.08
2023-09-20T12:26:19.000Z,25.13
2023-09-20T12:27:19.000Z,25.15
2023-09-20T12:28:19.000Z,25.20
2023-09-20T12:29:19.000Z,25.20
2023-09-20T12:30:20.000Z,25.23
2023-09-20T12:31:23.000Z,25.23
2023-09-20T12:32:19.000Z,25.26
2023-09-20T12:33:19.000Z,25.26
2023-09-20T12:34:21.000Z,25.26
2023-09-20T12:35:19.000Z,25.20
2023-09-20T12:36:23.000Z,25.24
2023-09-20T12:37:20.000Z,25.26
2023-09-20T12:38:20.000Z,25.31
2023-09-20T12:39:20.000Z,25.32
2023-09-20T12:40:23.000Z,25.33
2023-09-20T12:41:21.000Z,25.32
2023-09-20T12:42:22.000Z,25.30
2023-09-20T12:43:19.000Z,25.26
2023-09-20T12:44:20.000Z,25.27
2023-09-20T12:45:19.000Z,25.30
2023-09-20T12:46:21.000Z,25.30
2023-09-20T12:47:20.000Z,25.33
2023-09-20T12:48:22.000Z,25.33
2023-09-20T12:49:19.000Z,25.32
2023-09-20T12:50:19.000Z,25.32
2023-09-20T12:51:20.000Z,25.38
2023-09-20T12:52:19.000Z,25.39